Wrightstown, NJ (08562)

3:51 AM EDT on October 24, 2014 (GMT -0400)
Jacobstown | Change Station
CLOSE
Current Station
Personal Weather Station
Location: Wrightstown, NJ
Elevation: 141 ft
Nearby Weather Stations

Elev 141 ft 40.08 °N, 74.56 °W | Updated 1 minute ago

Mostly Cloudy
Mostly Cloudy
48.4 °F
Feels Like 48 °F
N
0.0
Wind Variable Wind from NW
Gusts 2.2 mph

Today
High -- | Low -- °F
--% Chance of Precip.
Yesterday
High -- | Low -- °F
Precip. -- in
7:18 AM 6:05 PM
New Moon, 0% visible
Pressure 29.79 in
Visibility 10.0 miles
Clouds Mostly Cloudy 6000 ft
Windchill 48 °F
Dew Point 46 °F
Humidity 90%
Rainfall 0.00 in
Snow Depth Not available.
UV 0 out of 12
Pollen .10 out of 12
Ozone Good
PM2.5 Good
Flu Activity Sporadic
METAR KWRI 240658Z AUTO 31009KT 10SM BKN060 11/07 A2978 RMK AO2 SLP088 T01050068

More Conditions Fewer Conditions

Pressure 29.79 in
Visibility 10.0 miles
Clouds Mostly Cloudy 6000 ft
Windchill 48 °F
Dew Point 46 °F
Humidity 90%
Rainfall 0.00 in
Snow Depth Not available.
UV 0 out of 12
Pollen .10 out of 12
Ozone Good
PM2.5 Good
Flu Activity Sporadic
METAR KWRI 240658Z AUTO 31009KT 10SM BKN060 11/07 A2978 RMK AO2 SLP088 T01050068

More Conditions Fewer Conditions

10-Day Weather Forecast

Almanac

Astronomy

Oct. 24, 2014 Rise Set
Actual Time 7:18 AM EDT 6:05 PM EDT
Civil Twilight 6:50 AM EDT 6:33 PM EDT
Nautical Twilight 6:19 AM EDT 7:05 PM EDT
Astronomical Twilight 5:47 AM EDT 7:36 PM EDT
Moon 7:55 AM EDT 6:44 PM EDT
Length of Visible Light 11h 42m
Length of Day
10h 47m
Tomorrow will be 2m 26s shorter.
New Moon, 0% of the Moon is Illuminated
Today
New Moon
Oct 30
First Quarter
Nov 6
Full
Nov 14
Last Quarter
Nov 22
New

Today's Extremes

State Highs State Lows

Community

WunderPhotos

Upload Photos

1,764,512 photos uploaded!

WunderBlogs® & News

Nearby

Air Quality

  Air Quality AQ Index Pollutant
Yesterday Good
PM2.5
Yesterday Good
OZONE
Current Good
PM2.5
Current Good
OZONE
Friday Good
PM2.5
Saturday Good
PM2.5
Sunday Good
PM2.5

Snow Depth

Station Depth Elevation
No new snow has been reported.

Earthquake Activity

City Distance Mag. Time & Date
No recent earthquake activity has been reported nearby.
Minimum magnitude displayed is 2.5.

Coastal Water Temperatures

Place Temperature
No Stations Reporting

Nearby Weather Stations